sensor_id;sensor_type;location;lat;lon;timestamp;pressure;altitude;pressure_sealevel;temperature;humidity
10806;BME280;5455;53.224;6.000;2023-02-03T00:01:15;102101.88;;;8.60;100.00
10806;BME280;5455;53.224;6.000;2023-02-03T00:03:42;102092.50;;;8.61;100.00
10806;BME280;5455;53.224;6.000;2023-02-03T00:06:09;102100.75;;;8.61;100.00
10806;BME280;5455;53.224;6.000;2023-02-03T00:08:37;102101.88;;;8.60;100.00
10806;BME280;5455;53.224;6.000;2023-02-03T00:11:04;102101.56;;;8.62;100.00
10806;BME280;5455;53.224;6.000;2023-02-03T00:13:31;102093.13;;;8.58;100.00
10806;BME280;5455;53.224;6.000;2023-02-03T00:15:59;102103.31;;;8.58;100.00
10806;BME280;5455;53.224;6.000;2023-02-03T00:18:27;102116.25;;;8.57;100.00
10806;BME280;5455;53.224;6.000;2023-02-03T00:20:54;102111.56;;;8.58;100.00
10806;BME280;5455;53.224;6.000;2023-02-03T00:23:21;102110.44;;;8.59;100.00
10806;BME280;5455;53.224;6.000;2023-02-03T00:25:48;102112.38;;;8.58;100.00
10806;BME280;5455;53.224;6.000;2023-02-03T00:28:15;102091.50;;;8.57;100.00
10806;BME280;5455;53.224;6.000;2023-02-03T00:30:42;102089.88;;;8.56;100.00
10806;BME280;5455;53.224;6.000;2023-02-03T00:33:09;102095.22;;;8.53;100.00
10806;BME280;5455;53.224;6.000;2023-02-03T00:35:37;102104.88;;;8.50;100.00
10806;BME280;5455;53.224;6.000;2023-02-03T00:38:05;102083.41;;;8.52;100.00
10806;BME280;5455;53.224;6.000;2023-02-03T00:40:32;102097.13;;;8.52;100.00
10806;BME280;5455;53.224;6.000;2023-02-03T00:43:00;102071.88;;;8.50;100.00
10806;BME280;5455;53.224;6.000;2023-02-03T00:45:27;102061.91;;;8.54;100.00
10806;BME280;5455;53.224;6.000;2023-02-03T00:47:55;102055.91;;;8.52;100.00
10806;BME280;5455;53.224;6.000;2023-02-03T00:50:22;102061.53;;;8.47;100.00
10806;BME280;5455;53.224;6.000;2023-02-03T00:52:49;102068.97;;;8.47;100.00
10806;BME280;5455;53.224;6.000;2023-02-03T00:55:17;102078.97;;;8.43;100.00
10806;BME280;5455;53.224;6.000;2023-02-03T00:57:43;102056.16;;;8.42;100.00
10806;BME280;5455;53.224;6.000;2023-02-03T01:00:11;102039.50;;;8.39;100.00
10806;BME280;5455;53.224;6.000;2023-02-03T01:02:38;102034.94;;;8.34;100.00
10806;BME280;5455;53.224;6.000;2023-02-03T01:05:05;102050.97;;;8.32;100.00
10806;BME280;5455;53.224;6.000;2023-02-03T01:07:32;102059.06;;;8.37;100.00
10806;BME280;5455;53.224;6.000;2023-02-03T01:09:59;102060.69;;;8.38;100.00
10806;BME280;5455;53.224;6.000;2023-02-03T01:12:30;102038.53;;;8.35;100.00
10806;BME280;5455;53.224;6.000;2023-02-03T01:14:58;102036.59;;;8.35;100.00
10806;BME280;5455;53.224;6.000;2023-02-03T01:17:25;102030.56;;;8.33;100.00
10806;BME280;5455;53.224;6.000;2023-02-03T01:19:52;102060.50;;;8.35;100.00
10806;BME280;5455;53.224;6.000;2023-02-03T01:22:20;102066.97;;;8.39;100.00
10806;BME280;5455;53.224;6.000;2023-02-03T01:24:48;102066.53;;;8.45;100.00
10806;BME280;5455;53.224;6.000;2023-02-03T01:27:15;102056.84;;;8.48;100.00
10806;BME280;5455;53.224;6.000;2023-02-03T01:29:42;102063.97;;;8.49;100.00
10806;BME280;5455;53.224;6.000;2023-02-03T01:32:09;102065.09;;;8.48;100.00
10806;BME280;5455;53.224;6.000;2023-02-03T01:34:36;102072.03;;;8.45;100.00
10806;BME280;5455;53.224;6.000;2023-02-03T01:37:04;102075.41;;;8.42;100.00
10806;BME280;5455;53.224;6.000;2023-02-03T01:39:31;102065.84;;;8.40;100.00
10806;BME280;5455;53.224;6.000;2023-02-03T01:41:58;102062.00;;;8.41;100.00
10806;BME280;5455;53.224;6.000;2023-02-03T01:44:44;102045.50;;;8.41;100.00
10806;BME280;5455;53.224;6.000;2023-02-03T01:47:33;102032.25;;;8.43;100.00
10806;BME280;5455;53.224;6.000;2023-02-03T01:50:20;102022.38;;;8.42;100.00
10806;BME280;5455;53.224;6.000;2023-02-03T01:52:52;102006.69;;;8.42;100.00
10806;BME280;5455;53.224;6.000;2023-02-03T01:55:30;102022.88;;;8.44;100.00
10806;BME280;5455;53.224;6.000;2023-02-03T01:58:26;102022.88;;;8.44;100.00
10806;BME280;5455;53.224;6.000;2023-02-03T02:00:57;102034.81;;;8.39;100.00
10806;BME280;5455;53.224;6.000;2023-02-03T02:03:35;102029.47;;;8.34;100.00
10806;BME280;5455;53.224;6.000;2023-02-03T02:06:06;102039.34;;;8.35;100.00
10806;BME280;5455;53.224;6.000;2023-02-03T02:08:34;102030.47;;;8.38;100.00
10806;BME280;5455;53.224;6.000;2023-02-03T02:11:02;102019.94;;;8.40;100.00
10806;BME280;5455;53.224;6.000;2023-02-03T02:13:30;102016.72;;;8.38;100.00
10806;BME280;5455;53.224;6.000;2023-02-03T02:16:06;102041.94;;;8.40;100.00
10806;BME280;5455;53.224;6.000;2023-02-03T02:24:57;102015.28;;;8.41;100.00
10806;BME280;5455;53.224;6.000;2023-02-03T02:33:32;102020.41;;;8.34;100.00
10806;BME280;5455;53.224;6.000;2023-02-03T02:38:59;102021.22;;;8.34;100.00
10806;BME280;5455;53.224;6.000;2023-02-03T02:41:30;102003.22;;;8.28;100.00
10806;BME280;5455;53.224;6.000;2023-02-03T02:44:15;102014.00;;;8.24;100.00
10806;BME280;5455;53.224;6.000;2023-02-03T02:46:48;102000.75;;;8.26;100.00
10806;BME280;5455;53.224;6.000;2023-02-03T02:49:30;102003.50;;;8.26;100.00
10806;BME280;5455;53.224;6.000;2023-02-03T02:52:00;101995.88;;;8.23;100.00
10806;BME280;5455;53.224;6.000;2023-02-03T02:54:30;101999.13;;;8.17;100.00
10806;BME280;5455;53.224;6.000;2023-02-03T02:57:02;102004.09;;;8.15;100.00
10806;BME280;5455;53.224;6.000;2023-02-03T02:59:30;102001.53;;;8.18;100.00
10806;BME280;5455;53.224;6.000;2023-02-03T03:01:58;101999.59;;;8.19;100.00
10806;BME280;5455;53.224;6.000;2023-02-03T03:04:26;102010.25;;;8.20;100.00
10806;BME280;5455;53.224;6.000;2023-02-03T03:09:30;101993.16;;;8.23;100.00
10806;BME280;5455;53.224;6.000;2023-02-03T03:12:18;102019.22;;;8.26;100.00
10806;BME280;5455;53.224;6.000;2023-02-03T03:14:51;101993.06;;;8.28;100.00
10806;BME280;5455;53.224;6.000;2023-02-03T03:17:25;101977.06;;;8.30;100.00
10806;BME280;5455;53.224;6.000;2023-02-03T03:19:56;101972.06;;;8.32;100.00
10806;BME280;5455;53.224;6.000;2023-02-03T03:22:32;101970.13;;;8.33;100.00
10806;BME280;5455;53.224;6.000;2023-02-03T03:25:27;101979.19;;;8.34;100.00
10806;BME280;5455;53.224;6.000;2023-02-03T03:27:58;101964.00;;;8.36;100.00
10806;BME280;5455;53.224;6.000;2023-02-03T03:30:28;101959.31;;;8.37;100.00
10806;BME280;5455;53.224;6.000;2023-02-03T03:32:58;101971.13;;;8.37;100.00
10806;BME280;5455;53.224;6.000;2023-02-03T03:35:31;101977.09;;;8.39;100.00
10806;BME280;5455;53.224;6.000;2023-02-03T03:38:16;101966.09;;;8.39;100.00
10806;BME280;5455;53.224;6.000;2023-02-03T03:40:54;101963.34;;;8.39;100.00
10806;BME280;5455;53.224;6.000;2023-02-03T03:43:27;101975.78;;;8.37;100.00
10806;BME280;5455;53.224;6.000;2023-02-03T03:46:12;101971.13;;;8.37;100.00
10806;BME280;5455;53.224;6.000;2023-02-03T03:48:55;101969.66;;;8.40;100.00
10806;BME280;5455;53.224;6.000;2023-02-03T03:53:59;101990.69;;;8.44;100.00
10806;BME280;5455;53.224;6.000;2023-02-03T03:56:39;101993.44;;;8.44;100.00
10806;BME280;5455;53.224;6.000;2023-02-03T03:59:08;101990.69;;;8.44;100.00
10806;BME280;5455;53.224;6.000;2023-02-03T04:01:37;101983.91;;;8.42;100.00
10806;BME280;5455;53.224;6.000;2023-02-03T04:04:07;101971.59;;;8.39;100.00
10806;BME280;5455;53.224;6.000;2023-02-03T04:06:37;101973.22;;;8.40;100.00
10806;BME280;5455;53.224;6.000;2023-02-03T04:09:05;101983.22;;;8.36;100.00
10806;BME280;5455;53.224;6.000;2023-02-03T04:11:32;102008.47;;;8.38;100.00
10806;BME280;5455;53.224;6.000;2023-02-03T04:14:18;102006.69;;;8.42;100.00
10806;BME280;5455;53.224;6.000;2023-02-03T04:16:45;102009.44;;;8.42;100.00
10806;BME280;5455;53.224;6.000;2023-02-03T04:19:12;101991.31;;;8.41;100.00
10806;BME280;5455;53.224;6.000;2023-02-03T04:21:39;101994.06;;;8.41;100.00
10806;BME280;5455;53.224;6.000;2023-02-03T04:24:06;101975.97;;;8.40;100.00
10806;BME280;5455;53.224;6.000;2023-02-03T04:26:33;101984.72;;;8.42;100.00
10806;BME280;5455;53.224;6.000;2023-02-03T04:29:01;101972.91;;;8.42;100.00
10806;BME280;5455;53.224;6.000;2023-02-03T04:31:28;101978.88;;;8.35;100.00
10806;BME280;5455;53.224;6.000;2023-02-03T04:33:55;101974.66;;;8.29;100.00
10806;BME280;5455;53.224;6.000;2023-02-03T04:36:22;101986.22;;;8.26;100.00
10806;BME280;5455;53.224;6.000;2023-02-03T04:38:49;101967.31;;;8.24;100.00
10806;BME280;5455;53.224;6.000;2023-02-03T04:41:17;101987.56;;;8.28;100.00
10806;BME280;5455;53.224;6.000;2023-02-03T04:43:44;101974.78;;;8.32;100.00
10806;BME280;5455;53.224;6.000;2023-02-03T04:46:11;101975.94;;;8.32;100.00
10806;BME280;5455;53.224;6.000;2023-02-03T04:48:38;101988.22;;;8.34;100.00
10806;BME280;5455;53.224;6.000;2023-02-03T04:51:07;101998.13;;;8.35;100.00
10806;BME280;5455;53.224;6.000;2023-02-03T04:53:34;101981.78;;;8.39;100.00
10806;BME280;5455;53.224;6.000;2023-02-03T04:56:02;102010.75;;;8.45;100.00
10806;BME280;5455;53.224;6.000;2023-02-03T04:58:29;101999.44;;;8.46;100.00
10806;BME280;5455;53.224;6.000;2023-02-03T05:00:56;102002.19;;;8.46;100.00
10806;BME280;5455;53.224;6.000;2023-02-03T05:03:23;101981.50;;;8.49;100.00
10806;BME280;5455;53.224;6.000;2023-02-03T05:05:55;101999.31;;;8.51;100.00
10806;BME280;5455;53.224;6.000;2023-02-03T05:08:22;101996.72;;;8.55;100.00
10806;BME280;5455;53.224;6.000;2023-02-03T05:10:49;101996.09;;;8.58;100.00
10806;BME280;5455;53.224;6.000;2023-02-03T05:13:17;101984.47;;;8.61;100.00
10806;BME280;5455;53.224;6.000;2023-02-03T05:15:44;101991.25;;;8.63;100.00
10806;BME280;5455;53.224;6.000;2023-02-03T05:18:10;102003.91;;;8.64;100.00
10806;BME280;5455;53.224;6.000;2023-02-03T05:20:37;101992.25;;;8.67;100.00
10806;BME280;5455;53.224;6.000;2023-02-03T05:23:04;102004.84;;;8.68;100.00
10806;BME280;5455;53.224;6.000;2023-02-03T05:25:31;101999.53;;;8.72;100.00
10806;BME280;5455;53.224;6.000;2023-02-03T05:27:58;101984.34;;;8.74;100.00
10806;BME280;5455;53.224;6.000;2023-02-03T05:30:25;101983.69;;;8.77;100.00
10806;BME280;5455;53.224;6.000;2023-02-03T05:32:52;101964.31;;;8.82;100.00
10806;BME280;5455;53.224;6.000;2023-02-03T05:35:20;101980.31;;;8.80;100.00
10806;BME280;5455;53.224;6.000;2023-02-03T05:37:47;101970.28;;;8.76;100.00
10806;BME280;5455;53.224;6.000;2023-02-03T05:40:15;101976.25;;;8.69;100.00
10806;BME280;5455;53.224;6.000;2023-02-03T05:43:01;101982.06;;;8.68;100.00
10806;BME280;5455;53.224;6.000;2023-02-03T05:45:28;101983.03;;;8.72;100.00
10806;BME280;5455;53.224;6.000;2023-02-03T05:47:55;101988.72;;;8.75;100.00
10806;BME280;5455;53.224;6.000;2023-02-03T05:50:22;101977.09;;;8.78;100.00
10806;BME280;5455;53.224;6.000;2023-02-03T05:52:50;101982.44;;;8.83;100.00
10806;BME280;5455;53.224;6.000;2023-02-03T05:55:17;101993.44;;;8.83;100.00
10806;BME280;5455;53.224;6.000;2023-02-03T05:57:44;101983.56;;;8.82;100.00
10806;BME280;5455;53.224;6.000;2023-02-03T06:00:11;101980.31;;;8.80;100.00
10806;BME280;5455;53.224;6.000;2023-02-03T06:02:38;101970.28;;;8.76;100.00
10806;BME280;5455;53.224;6.000;2023-02-03T06:05:05;101983.56;;;8.74;100.00
10806;BME280;5455;53.224;6.000;2023-02-03T06:07:32;101994.84;;;8.72;100.00
10806;BME280;5455;53.224;6.000;2023-02-03T06:09:59;101977.53;;;8.72;100.00
10806;BME280;5455;53.224;6.000;2023-02-03T06:12:28;101981.44;;;8.71;100.00
10806;BME280;5455;53.224;6.000;2023-02-03T06:14:55;101975.13;;;8.70;100.00
10806;BME280;5455;53.224;6.000;2023-02-03T06:17:21;101968.34;;;8.68;100.00
10806;BME280;5455;53.224;6.000;2023-02-03T06:19:49;101970.91;;;8.64;100.00
10806;BME280;5455;53.224;6.000;2023-02-03T06:22:17;101970.09;;;8.64;100.00
10806;BME280;5455;53.224;6.000;2023-02-03T06:24:43;101987.03;;;8.57;100.00
10806;BME280;5455;53.224;6.000;2023-02-03T06:27:11;101969.53;;;8.53;100.00
10806;BME280;5455;53.224;6.000;2023-02-03T06:29:39;101983.63;;;8.52;100.00
10806;BME280;5455;53.224;6.000;2023-02-03T06:32:07;101973.44;;;8.52;100.00
10806;BME280;5455;53.224;6.000;2023-02-03T06:34:34;101967.44;;;8.50;100.00
10806;BME280;5455;53.224;6.000;2023-02-03T06:37:01;101979.41;;;8.46;100.00
10806;BME280;5455;53.224;6.000;2023-02-03T06:39:28;101982.81;;;8.51;100.00
10806;BME280;5455;53.224;6.000;2023-02-03T06:41:55;101967.94;;;8.52;100.00
10806;BME280;5455;53.224;6.000;2023-02-03T06:44:22;101983.00;;;8.55;100.00
10806;BME280;5455;53.224;6.000;2023-02-03T06:46:50;101993.81;;;8.51;100.00
10806;BME280;5455;53.224;6.000;2023-02-03T06:49:17;102008.13;;;8.40;100.00
10806;BME280;5455;53.224;6.000;2023-02-03T06:51:45;102004.25;;;8.32;100.00
10806;BME280;5455;53.224;6.000;2023-02-03T06:54:13;102011.66;;;8.32;100.00
10806;BME280;5455;53.224;6.000;2023-02-03T06:56:40;102014.91;;;8.34;100.00
10806;BME280;5455;53.224;6.000;2023-02-03T06:59:07;102033.50;;;8.37;100.00
10806;BME280;5455;53.224;6.000;2023-02-03T07:01:36;102021.06;;;8.39;100.00
10806;BME280;5455;53.224;6.000;2023-02-03T07:04:03;102024.31;;;8.41;100.00
10806;BME280;5455;53.224;6.000;2023-02-03T07:06:30;102019.00;;;8.45;100.00
10806;BME280;5455;53.224;6.000;2023-02-03T07:09:01;102033.72;;;8.49;100.00
10806;BME280;5455;53.224;6.000;2023-02-03T07:11:29;102035.19;;;8.46;100.00
10806;BME280;5455;53.224;6.000;2023-02-03T07:13:56;102033.41;;;8.50;100.00
10806;BME280;5455;53.224;6.000;2023-02-03T07:16:24;102028.41;;;8.52;100.00
10806;BME280;5455;53.224;6.000;2023-02-03T07:18:51;102038.59;;;8.52;100.00
10806;BME280;5455;53.224;6.000;2023-02-03T07:21:18;102041.03;;;8.53;100.00
10806;BME280;5455;53.224;6.000;2023-02-03T07:23:46;102045.41;;;8.54;100.00
10806;BME280;5455;53.224;6.000;2023-02-03T07:26:16;102048.63;;;8.56;100.00
10806;BME280;5455;53.224;6.000;2023-02-03T07:28:44;102051.09;;;8.58;100.00
10806;BME280;5455;53.224;6.000;2023-02-03T07:31:11;102053.69;;;8.63;100.00
10806;BME280;5455;53.224;6.000;2023-02-03T07:33:38;102054.19;;;8.65;100.00
10806;BME280;5455;53.224;6.000;2023-02-03T07:36:06;102055.16;;;8.69;100.00
10806;BME280;5455;53.224;6.000;2023-02-03T07:38:33;102054.88;;;8.70;100.00
10806;BME280;5455;53.224;6.000;2023-02-03T07:41:01;102064.72;;;8.71;100.00
10806;BME280;5455;53.224;6.000;2023-02-03T07:43:27;102060.38;;;8.70;100.00
10806;BME280;5455;53.224;6.000;2023-02-03T07:45:54;102054.06;;;8.70;100.00
10806;BME280;5455;53.224;6.000;2023-02-03T07:48:22;102061.31;;;8.66;100.00
10806;BME280;5455;53.224;6.000;2023-02-03T07:50:49;102078.59;;;8.66;100.00
10806;BME280;5455;53.224;6.000;2023-02-03T07:53:18;102070.38;;;8.66;100.00
10806;BME280;5455;53.224;6.000;2023-02-03T07:55:45;102079.72;;;8.65;100.00
10806;BME280;5455;53.224;6.000;2023-02-03T07:58:12;102083.09;;;8.62;100.00
10806;BME280;5455;53.224;6.000;2023-02-03T08:00:40;102093.75;;;8.55;100.00
10806;BME280;5455;53.224;6.000;2023-02-03T08:03:07;102106.66;;;8.46;100.00
10806;BME280;5455;53.224;6.000;2023-02-03T08:05:34;102095.59;;;8.38;100.00
10806;BME280;5455;53.224;6.000;2023-02-03T08:08:01;102098.16;;;8.34;100.00
10806;BME280;5455;53.224;6.000;2023-02-03T08:10:29;102098.78;;;8.31;100.00
10806;BME280;5455;53.224;6.000;2023-02-03T08:12:56;102099.28;;;8.33;100.00
10806;BME280;5455;53.224;6.000;2023-02-03T08:15:23;102111.06;;;8.34;100.00
10806;BME280;5455;53.224;6.000;2023-02-03T08:17:50;102105.91;;;8.32;100.00
10806;BME280;5455;53.224;6.000;2023-02-03T08:20:18;102091.66;;;8.30;100.00
10806;BME280;5455;53.224;6.000;2023-02-03T08:22:45;102104.75;;;8.33;100.00
10806;BME280;5455;53.224;6.000;2023-02-03T08:25:12;102117.88;;;8.36;100.00
10806;BME280;5455;53.224;6.000;2023-02-03T08:27:40;102116.78;;;8.37;100.00
10806;BME280;5455;53.224;6.000;2023-02-03T08:30:10;102115.66;;;8.38;100.00
10806;BME280;5455;53.224;6.000;2023-02-03T08:32:38;102121.16;;;8.38;100.00
10806;BME280;5455;53.224;6.000;2023-02-03T08:35:06;102127.75;;;8.37;100.00
10806;BME280;5455;53.224;6.000;2023-02-03T08:37:33;102142.63;;;8.36;100.00
10806;BME280;5455;53.224;6.000;2023-02-03T08:40:00;102124.69;;;8.39;100.00
10806;BME280;5455;53.224;6.000;2023-02-03T08:42:27;102125.69;;;8.43;100.00
10806;BME280;5455;53.224;6.000;2023-02-03T08:44:54;102124.75;;;8.47;100.00
10806;BME280;5455;53.224;6.000;2023-02-03T08:47:21;102121.56;;;8.54;100.00
10806;BME280;5455;53.224;6.000;2023-02-03T08:49:48;102133.22;;;8.59;100.00
10806;BME280;5455;53.224;6.000;2023-02-03T08:52:16;102129.22;;;8.65;100.00
10806;BME280;5455;53.224;6.000;2023-02-03T08:54:46;102135.09;;;8.72;100.00
10806;BME280;5455;53.224;6.000;2023-02-03T08:57:14;102135.66;;;8.83;100.00
10806;BME280;5455;53.224;6.000;2023-02-03T08:59:42;102147.81;;;8.91;100.00
10806;BME280;5455;53.224;6.000;2023-02-03T09:02:13;102150.13;;;8.97;100.00
10806;BME280;5455;53.224;6.000;2023-02-03T09:04:42;102154.34;;;9.03;100.00
10806;BME280;5455;53.224;6.000;2023-02-03T09:07:09;102161.63;;;9.08;100.00
10806;BME280;5455;53.224;6.000;2023-02-03T09:09:36;102165.88;;;9.14;100.00
10806;BME280;5455;53.224;6.000;2023-02-03T09:12:07;102161.38;;;9.18;100.00
10806;BME280;5455;53.224;6.000;2023-02-03T09:14:34;102175.63;;;9.20;100.00
10806;BME280;5455;53.224;6.000;2023-02-03T09:17:02;102160.75;;;9.21;100.00
10806;BME280;5455;53.224;6.000;2023-02-03T09:19:30;102169.47;;;9.23;100.00
10806;BME280;5455;53.224;6.000;2023-02-03T09:22:00;102174.16;;;9.22;100.00
10806;BME280;5455;53.224;6.000;2023-02-03T09:24:27;102187.63;;;9.24;100.00
10806;BME280;5455;53.224;6.000;2023-02-03T09:26:54;102202.69;;;9.26;100.00
10806;BME280;5455;53.224;6.000;2023-02-03T09:29:21;102206.88;;;9.24;100.00
10806;BME280;5455;53.224;6.000;2023-02-03T09:31:49;102198.63;;;9.24;100.00
10806;BME280;5455;53.224;6.000;2023-02-03T09:34:20;102188.06;;;9.17;100.00
10806;BME280;5455;53.224;6.000;2023-02-03T09:36:47;102208.34;;;9.21;100.00
10806;BME280;5455;53.224;6.000;2023-02-03T09:39:15;102213.31;;;9.19;100.00
10806;BME280;5455;53.224;6.000;2023-02-03T09:44:50;102226.41;;;9.14;100.00
10806;BME280;5455;53.224;6.000;2023-02-03T09:47:27;102209.22;;;9.08;100.00
10806;BME280;5455;53.224;6.000;2023-02-03T09:49:59;102227.88;;;9.11;100.00
10806;BME280;5455;53.224;6.000;2023-02-03T09:52:30;102229.78;;;9.11;100.00
10806;BME280;5455;53.224;6.000;2023-02-03T09:55:08;102232.53;;;9.11;100.00
10806;BME280;5455;53.224;6.000;2023-02-03T09:57:43;102235.94;;;9.08;100.00
10806;BME280;5455;53.224;6.000;2023-02-03T10:00:26;102255.81;;;9.05;100.00
10806;BME280;5455;53.224;6.000;2023-02-03T10:03:06;102252.28;;;9.04;100.00
10806;BME280;5455;53.224;6.000;2023-02-03T10:08:59;102266.34;;;9.03;100.00
10806;BME280;5455;53.224;6.000;2023-02-03T10:20:11;102269.28;;;9.06;100.00
10806;BME280;5455;53.224;6.000;2023-02-03T10:22:51;102285.78;;;9.06;100.00
10806;BME280;5455;53.224;6.000;2023-02-03T10:27:55;102292.34;;;8.97;100.00
10806;BME280;5455;53.224;6.000;2023-02-03T10:30:39;102315.78;;;8.94;100.00
10806;BME280;5455;53.224;6.000;2023-02-03T10:33:14;102313.88;;;8.95;100.00
10806;BME280;5455;53.224;6.000;2023-02-03T10:35:54;102310.09;;;8.91;100.00
10806;BME280;5455;53.224;6.000;2023-02-03T10:40:59;102314.09;;;8.84;100.00
10806;BME280;5455;53.224;6.000;2023-02-03T10:43:28;102314.09;;;8.84;100.00
10806;BME280;5455;53.224;6.000;2023-02-03T10:46:27;102328.97;;;8.83;100.00
10806;BME280;5455;53.224;6.000;2023-02-03T10:48:55;102328.66;;;8.85;100.00
10806;BME280;5455;53.224;6.000;2023-02-03T10:51:25;102339.66;;;8.85;100.00
10806;BME280;5455;53.224;6.000;2023-02-03T10:53:52;102339.88;;;8.89;100.00
10806;BME280;5455;53.224;6.000;2023-02-03T10:56:24;102327.72;;;8.90;100.00
10806;BME280;5455;53.224;6.000;2023-02-03T10:58:54;102342.81;;;8.92;100.00
10806;BME280;5455;53.224;6.000;2023-02-03T11:01:25;102344.94;;;8.95;100.00
10806;BME280;5455;53.224;6.000;2023-02-03T11:03:54;102350.81;;;9.02;100.00
10806;BME280;5455;53.224;6.000;2023-02-03T11:06:22;102344.69;;;9.05;100.00
10806;BME280;5455;53.224;6.000;2023-02-03T11:08:50;102345.38;;;9.11;100.00
10806;BME280;5455;53.224;6.000;2023-02-03T11:11:30;102349.75;;;9.12;100.00
10806;BME280;5455;53.224;6.000;2023-02-03T11:14:10;102369.94;;;9.07;100.00
10806;BME280;5455;53.224;6.000;2023-02-03T11:16:38;102352.44;;;9.03;100.00
10806;BME280;5455;53.224;6.000;2023-02-03T11:19:18;102356.94;;;8.99;100.00
10806;BME280;5455;53.224;6.000;2023-02-03T11:21:52;102353.19;;;8.95;100.00
10806;BME280;5455;53.224;6.000;2023-02-03T11:24:30;102354.72;;;8.88;100.00
10806;BME280;5455;53.224;6.000;2023-02-03T11:27:25;102368.00;;;8.85;100.00
10806;BME280;5455;53.224;6.000;2023-02-03T11:32:39;102366.47;;;8.79;100.00
10806;BME280;5455;53.224;6.000;2023-02-03T11:35:20;102366.97;;;8.81;100.00
10806;BME280;5455;53.224;6.000;2023-02-03T11:37:53;102361.47;;;8.81;100.00
10806;BME280;5455;53.224;6.000;2023-02-03T11:45:24;102371.38;;;8.82;100.00
10806;BME280;5455;53.224;6.000;2023-02-03T11:47:59;102378.59;;;8.78;100.00
10806;BME280;5455;53.224;6.000;2023-02-03T11:50:38;102373.50;;;8.72;100.00
10806;BME280;5455;53.224;6.000;2023-02-03T12:10:45;102398.72;;;8.52;100.00
10806;BME280;5455;53.224;6.000;2023-02-03T12:21:40;102403.56;;;8.68;100.00
10806;BME280;5455;53.224;6.000;2023-02-03T12:24:18;102405.69;;;8.71;100.00
10806;BME280;5455;53.224;6.000;2023-02-03T12:32:11;102411.88;;;8.91;100.00
10806;BME280;5455;53.224;6.000;2023-02-03T12:34:54;102422.13;;;8.99;100.00
10806;BME280;5455;53.224;6.000;2023-02-03T12:37:29;102412.28;;;8.98;100.00
10806;BME280;5455;53.224;6.000;2023-02-03T12:42:53;102426.41;;;9.05;100.00
10806;BME280;5455;53.224;6.000;2023-02-03T12:45:30;102453.91;;;9.05;100.00
10806;BME280;5455;53.224;6.000;2023-02-03T12:48:05;102444.88;;;9.04;100.00
10806;BME280;5455;53.224;6.000;2023-02-03T12:50:38;102442.91;;;9.05;100.00
10806;BME280;5455;53.224;6.000;2023-02-03T12:53:15;102438.44;;;9.09;100.00
10806;BME280;5455;53.224;6.000;2023-02-03T12:55:49;102444.94;;;9.13;100.00
10806;BME280;5455;53.224;6.000;2023-02-03T12:58:26;102430.78;;;9.06;100.00
10806;BME280;5455;53.224;6.000;2023-02-03T13:01:24;102433.22;;;9.07;100.00
10806;BME280;5455;53.224;6.000;2023-02-03T13:04:07;102447.19;;;9.11;100.00
10806;BME280;5455;53.224;6.000;2023-02-03T13:09:37;102450.25;;;8.96;100.00
10806;BME280;5455;53.224;6.000;2023-02-03T13:12:19;102453.03;;;8.96;100.00
10806;BME280;5455;53.224;6.000;2023-02-03T13:14:58;102457.28;;;9.02;100.00
10806;BME280;5455;53.224;6.000;2023-02-03T13:17:33;102446.56;;;9.14;100.00
10806;BME280;5455;53.224;6.000;2023-02-03T13:20:18;102436.75;;;9.21;100.00
10806;BME280;5455;53.224;6.000;2023-02-03T13:22:46;102455.28;;;9.29;100.00
10806;BME280;5455;53.224;6.000;2023-02-03T13:28:18;102483.50;;;9.35;100.00
10806;BME280;5455;53.224;6.000;2023-02-03T13:42:31;102475.75;;;9.37;100.00
10806;BME280;5455;53.224;6.000;2023-02-03T13:45:13;102482.81;;;9.29;100.00
10806;BME280;5455;53.224;6.000;2023-02-03T13:47:46;102464.59;;;9.20;100.00
10806;BME280;5455;53.224;6.000;2023-02-03T13:50:27;102482.84;;;9.16;100.00
10806;BME280;5455;53.224;6.000;2023-02-03T13:52:59;102481.34;;;9.10;100.00
10806;BME280;5455;53.224;6.000;2023-02-03T13:55:33;102493.25;;;9.05;100.00
10806;BME280;5455;53.224;6.000;2023-02-03T13:58:02;102480.25;;;8.97;100.00
10806;BME280;5455;53.224;6.000;2023-02-03T14:04:03;102492.06;;;8.98;100.00
10806;BME280;5455;53.224;6.000;2023-02-03T14:06:10;102496.13;;;9.00;100.00
10806;BME280;5455;53.224;6.000;2023-02-03T14:08:59;102483.28;;;8.96;100.00
10806;BME280;5455;53.224;6.000;2023-02-03T14:16:43;102504.19;;;8.97;100.00
10806;BME280;5455;53.224;6.000;2023-02-03T14:23:26;102492.44;;;9.05;100.00
10806;BME280;5455;53.224;6.000;2023-02-03T14:25:56;102501.38;;;9.10;100.00
10806;BME280;5455;53.224;6.000;2023-02-03T14:28:30;102511.69;;;9.18;100.00
10806;BME280;5455;53.224;6.000;2023-02-03T14:31:16;102507.91;;;9.14;100.00
10806;BME280;5455;53.224;6.000;2023-02-03T14:36:30;102519.88;;;9.10;100.00
10806;BME280;5455;53.224;6.000;2023-02-03T14:39:02;102534.84;;;9.04;100.00
10806;BME280;5455;53.224;6.000;2023-02-03T14:47:09;102519.56;;;8.84;100.00
10806;BME280;5455;53.224;6.000;2023-02-03T14:52:35;102520.72;;;8.83;100.00
10806;BME280;5455;53.224;6.000;2023-02-03T14:58:00;102512.16;;;8.71;100.00
10806;BME280;5455;53.224;6.000;2023-02-03T15:00:31;102527.50;;;8.72;100.00
10806;BME280;5455;53.224;6.000;2023-02-03T15:05:33;102542.81;;;8.64;100.00
10806;BME280;5455;53.224;6.000;2023-02-03T15:08:00;102545.63;;;8.59;100.00
10806;BME280;5455;53.224;6.000;2023-02-03T15:13:26;102551.56;;;8.53;100.00
10806;BME280;5455;53.224;6.000;2023-02-03T15:15:55;102552.66;;;8.52;100.00
10806;BME280;5455;53.224;6.000;2023-02-03T15:18:30;102554.31;;;8.53;100.00
10806;BME280;5455;53.224;6.000;2023-02-03T15:20:58;102566.09;;;8.53;100.00
10806;BME280;5455;53.224;6.000;2023-02-03T15:23:27;102566.09;;;8.53;100.00
10806;BME280;5455;53.224;6.000;2023-02-03T15:25:57;102569.75;;;8.49;100.00
10806;BME280;5455;53.224;6.000;2023-02-03T15:28:27;102565.16;;;8.44;100.00
10806;BME280;5455;53.224;6.000;2023-02-03T15:31:00;102571.25;;;8.41;100.00